Papineauville, Canada
Current Conditions -  °F | °C
As of 4:00 PM on Monday 22 Dec 2014 (Local Time) from CYND Reporting Station
Haze Haze  
Wind Chill: 11°   Ceiling: 1200
Heat Index: 23°   Visibility: 4mi
Dew Point: 19°   Wind: 13mph
Humidity: 86%   Direction: 80°E
Pressure: 30.3"   Gusts: NA
Location:  45.62°N, 75.02°W
Report Text: CYND 222100Z 08011KT 4SM BR BKN012 OVC025 M05/M07 A3030 RMK SC7SC1 SLP264
Loading
Personal Weather Stations






























Interactive Weather Map New forecast layout! Learn more

10-Day Weather Forecast

Advertisements
Track Severe Weather on mobile